sensor_id;sensor_type;location;lat;lon;timestamp;P1;durP1;ratioP1;P2;durP2;ratioP2
6955;SDS011;50345;51.136;16.886;2023-02-27T00:01:46;9.17;;;6.20;;
6955;SDS011;50345;51.136;16.886;2023-02-27T00:04:11;9.67;;;6.33;;
6955;SDS011;50345;51.136;16.886;2023-02-27T00:06:37;11.93;;;6.63;;
6955;SDS011;50345;51.136;16.886;2023-02-27T00:09:03;13.23;;;5.90;;
6955;SDS011;50345;51.136;16.886;2023-02-27T00:11:28;8.40;;;5.10;;
6955;SDS011;50345;51.136;16.886;2023-02-27T00:13:54;9.47;;;7.03;;
6955;SDS011;50345;51.136;16.886;2023-02-27T00:16:19;9.63;;;6.00;;
6955;SDS011;50345;51.136;16.886;2023-02-27T00:18:45;11.43;;;6.73;;
6955;SDS011;50345;51.136;16.886;2023-02-27T00:21:10;13.43;;;7.00;;
6955;SDS011;50345;51.136;16.886;2023-02-27T00:23:36;12.70;;;6.63;;
6955;SDS011;50345;51.136;16.886;2023-02-27T00:26:02;10.87;;;6.40;;
6955;SDS011;50345;51.136;16.886;2023-02-27T00:28:28;9.93;;;7.25;;
6955;SDS011;50345;51.136;16.886;2023-02-27T00:30:54;10.10;;;7.25;;
6955;SDS011;50345;51.136;16.886;2023-02-27T00:33:20;11.13;;;7.40;;
6955;SDS011;50345;51.136;16.886;2023-02-27T00:35:59;15.23;;;7.37;;
6955;SDS011;50345;51.136;16.886;2023-02-27T00:38:25;9.48;;;6.68;;
6955;SDS011;50345;51.136;16.886;2023-02-27T00:40:51;14.30;;;7.18;;
6955;SDS011;50345;51.136;16.886;2023-02-27T00:43:18;11.35;;;6.90;;
6955;SDS011;50345;51.136;16.886;2023-02-27T00:45:43;14.80;;;7.63;;
6955;SDS011;50345;51.136;16.886;2023-02-27T00:48:09;8.70;;;6.60;;
6955;SDS011;50345;51.136;16.886;2023-02-27T00:50:34;10.60;;;6.60;;
6955;SDS011;50345;51.136;16.886;2023-02-27T00:53:00;13.70;;;7.10;;
6955;SDS011;50345;51.136;16.886;2023-02-27T00:55:25;11.40;;;7.17;;
6955;SDS011;50345;51.136;16.886;2023-02-27T00:57:51;12.77;;;6.87;;
6955;SDS011;50345;51.136;16.886;2023-02-27T01:00:17;9.30;;;5.40;;
6955;SDS011;50345;51.136;16.886;2023-02-27T01:02:42;10.73;;;6.53;;
6955;SDS011;50345;51.136;16.886;2023-02-27T01:05:08;9.47;;;5.70;;
6955;SDS011;50345;51.136;16.886;2023-02-27T01:07:34;8.95;;;5.03;;
6955;SDS011;50345;51.136;16.886;2023-02-27T01:10:01;10.48;;;6.05;;
6955;SDS011;50345;51.136;16.886;2023-02-27T01:12:27;9.18;;;4.95;;
6955;SDS011;50345;51.136;16.886;2023-02-27T01:14:53;11.67;;;6.63;;
6955;SDS011;50345;51.136;16.886;2023-02-27T01:17:18;7.63;;;5.67;;
6955;SDS011;50345;51.136;16.886;2023-02-27T01:19:44;6.77;;;5.40;;
6955;SDS011;50345;51.136;16.886;2023-02-27T01:22:10;7.17;;;5.17;;
6955;SDS011;50345;51.136;16.886;2023-02-27T01:24:35;7.97;;;5.07;;
6955;SDS011;50345;51.136;16.886;2023-02-27T01:27:01;7.90;;;5.63;;
6955;SDS011;50345;51.136;16.886;2023-02-27T01:29:26;10.10;;;5.77;;
6955;SDS011;50345;51.136;16.886;2023-02-27T01:31:52;9.67;;;5.00;;
6955;SDS011;50345;51.136;16.886;2023-02-27T01:34:18;8.03;;;4.57;;
6955;SDS011;50345;51.136;16.886;2023-02-27T01:36:44;8.13;;;5.32;;
6955;SDS011;50345;51.136;16.886;2023-02-27T01:39:10;8.83;;;5.40;;
6955;SDS011;50345;51.136;16.886;2023-02-27T01:41:35;10.07;;;5.37;;
6955;SDS011;50345;51.136;16.886;2023-02-27T01:44:02;8.07;;;5.60;;
6955;SDS011;50345;51.136;16.886;2023-02-27T01:46:33;6.50;;;4.93;;
6955;SDS011;50345;51.136;16.886;2023-02-27T01:49:03;8.10;;;5.20;;
6955;SDS011;50345;51.136;16.886;2023-02-27T01:51:35;9.90;;;5.32;;
6955;SDS011;50345;51.136;16.886;2023-02-27T01:54:04;8.32;;;4.78;;
6955;SDS011;50345;51.136;16.886;2023-02-27T01:56:33;8.63;;;6.93;;
6955;SDS011;50345;51.136;16.886;2023-02-27T01:59:03;11.50;;;5.50;;
6955;SDS011;50345;51.136;16.886;2023-02-27T02:01:32;8.95;;;5.13;;
6955;SDS011;50345;51.136;16.886;2023-02-27T02:06:46;5.00;;;4.05;;
6955;SDS011;50345;51.136;16.886;2023-02-27T02:09:15;8.13;;;5.10;;
6955;SDS011;50345;51.136;16.886;2023-02-27T02:11:42;8.63;;;5.05;;
6955;SDS011;50345;51.136;16.886;2023-02-27T02:14:08;8.38;;;5.28;;
6955;SDS011;50345;51.136;16.886;2023-02-27T02:25:08;6.88;;;3.72;;
6955;SDS011;50345;51.136;16.886;2023-02-27T02:28:22;5.38;;;3.60;;
6955;SDS011;50345;51.136;16.886;2023-02-27T02:34:42;6.18;;;4.30;;
6955;SDS011;50345;51.136;16.886;2023-02-27T02:40:32;5.35;;;3.35;;
6955;SDS011;50345;51.136;16.886;2023-02-27T02:46:13;5.00;;;3.33;;
6955;SDS011;50345;51.136;16.886;2023-02-27T02:49:22;4.57;;;3.25;;
6955;SDS011;50345;51.136;16.886;2023-02-27T02:52:01;5.75;;;3.83;;
6955;SDS011;50345;51.136;16.886;2023-02-27T02:54:49;7.95;;;4.00;;
6955;SDS011;50345;51.136;16.886;2023-02-27T02:57:42;5.05;;;3.40;;
6955;SDS011;50345;51.136;16.886;2023-02-27T03:00:32;6.97;;;4.22;;
6955;SDS011;50345;51.136;16.886;2023-02-27T03:03:11;6.65;;;4.65;;
6955;SDS011;50345;51.136;16.886;2023-02-27T03:05:53;19.60;;;7.72;;
6955;SDS011;50345;51.136;16.886;2023-02-27T03:08:24;8.30;;;6.55;;
6955;SDS011;50345;51.136;16.886;2023-02-27T03:10:57;7.25;;;4.80;;
6955;SDS011;50345;51.136;16.886;2023-02-27T03:13:38;6.38;;;4.25;;
6955;SDS011;50345;51.136;16.886;2023-02-27T03:21:30;5.65;;;3.42;;
6955;SDS011;50345;51.136;16.886;2023-02-27T03:24:00;7.47;;;3.65;;
6955;SDS011;50345;51.136;16.886;2023-02-27T03:26:30;7.53;;;3.78;;
6955;SDS011;50345;51.136;16.886;2023-02-27T03:29:00;6.30;;;3.65;;
6955;SDS011;50345;51.136;16.886;2023-02-27T03:31:37;6.93;;;3.85;;
6955;SDS011;50345;51.136;16.886;2023-02-27T03:34:26;6.82;;;4.18;;
6955;SDS011;50345;51.136;16.886;2023-02-27T03:36:59;6.15;;;3.95;;
6955;SDS011;50345;51.136;16.886;2023-02-27T03:39:50;6.90;;;3.58;;
6955;SDS011;50345;51.136;16.886;2023-02-27T03:42:22;7.82;;;4.07;;
6955;SDS011;50345;51.136;16.886;2023-02-27T03:47:51;5.65;;;3.60;;
6955;SDS011;50345;51.136;16.886;2023-02-27T03:50:17;8.67;;;5.17;;
6955;SDS011;50345;51.136;16.886;2023-02-27T03:52:42;7.93;;;4.60;;
6955;SDS011;50345;51.136;16.886;2023-02-27T03:55:16;7.80;;;4.45;;
6955;SDS011;50345;51.136;16.886;2023-02-27T03:57:47;9.48;;;5.30;;
6955;SDS011;50345;51.136;16.886;2023-02-27T04:00:16;7.40;;;5.05;;
6955;SDS011;50345;51.136;16.886;2023-02-27T04:02:44;6.82;;;4.85;;
6955;SDS011;50345;51.136;16.886;2023-02-27T04:05:11;8.88;;;4.97;;
6955;SDS011;50345;51.136;16.886;2023-02-27T04:07:41;6.73;;;4.50;;
6955;SDS011;50345;51.136;16.886;2023-02-27T04:10:34;8.30;;;4.57;;
6955;SDS011;50345;51.136;16.886;2023-02-27T04:13:24;5.75;;;4.10;;
6955;SDS011;50345;51.136;16.886;2023-02-27T04:19:10;6.25;;;5.30;;
6955;SDS011;50345;51.136;16.886;2023-02-27T04:27:14;9.02;;;4.88;;
6955;SDS011;50345;51.136;16.886;2023-02-27T04:29:46;6.97;;;3.53;;
6955;SDS011;50345;51.136;16.886;2023-02-27T04:34:59;11.80;;;4.43;;
6955;SDS011;50345;51.136;16.886;2023-02-27T04:37:34;16.70;;;9.20;;
6955;SDS011;50345;51.136;16.886;2023-02-27T04:40:12;17.85;;;10.38;;
6955;SDS011;50345;51.136;16.886;2023-02-27T04:42:46;15.93;;;7.85;;
6955;SDS011;50345;51.136;16.886;2023-02-27T04:45:18;9.93;;;5.82;;
6955;SDS011;50345;51.136;16.886;2023-02-27T04:47:50;7.15;;;5.70;;
6955;SDS011;50345;51.136;16.886;2023-02-27T04:50:34;6.18;;;4.50;;
6955;SDS011;50345;51.136;16.886;2023-02-27T04:55:48;7.20;;;4.00;;
6955;SDS011;50345;51.136;16.886;2023-02-27T04:58:17;6.28;;;4.00;;
6955;SDS011;50345;51.136;16.886;2023-02-27T05:00:59;6.75;;;4.30;;
6955;SDS011;50345;51.136;16.886;2023-02-27T05:03:33;7.20;;;4.78;;
6955;SDS011;50345;51.136;16.886;2023-02-27T05:06:00;6.75;;;4.70;;
6955;SDS011;50345;51.136;16.886;2023-02-27T05:08:28;7.20;;;5.40;;
6955;SDS011;50345;51.136;16.886;2023-02-27T05:11:14;15.82;;;9.43;;
6955;SDS011;50345;51.136;16.886;2023-02-27T05:13:57;10.77;;;6.80;;
6955;SDS011;50345;51.136;16.886;2023-02-27T05:16:46;9.30;;;5.70;;
6955;SDS011;50345;51.136;16.886;2023-02-27T05:19:13;6.57;;;4.65;;
6955;SDS011;50345;51.136;16.886;2023-02-27T05:29:35;6.37;;;5.27;;
6955;SDS011;50345;51.136;16.886;2023-02-27T05:35:12;8.30;;;6.22;;
6955;SDS011;50345;51.136;16.886;2023-02-27T05:40:36;7.45;;;6.38;;
6955;SDS011;50345;51.136;16.886;2023-02-27T05:43:19;5.75;;;5.25;;
6955;SDS011;50345;51.136;16.886;2023-02-27T05:45:49;7.57;;;5.70;;
6955;SDS011;50345;51.136;16.886;2023-02-27T05:48:19;10.38;;;8.02;;
6955;SDS011;50345;51.136;16.886;2023-02-27T05:50:56;8.73;;;7.18;;
6955;SDS011;50345;51.136;16.886;2023-02-27T05:53:23;9.45;;;6.47;;
6955;SDS011;50345;51.136;16.886;2023-02-27T05:55:53;8.30;;;7.22;;
6955;SDS011;50345;51.136;16.886;2023-02-27T06:00:57;7.57;;;5.57;;
6955;SDS011;50345;51.136;16.886;2023-02-27T06:03:25;13.02;;;6.60;;
6955;SDS011;50345;51.136;16.886;2023-02-27T06:05:52;9.63;;;6.38;;
6955;SDS011;50345;51.136;16.886;2023-02-27T06:08:19;8.38;;;5.25;;
6955;SDS011;50345;51.136;16.886;2023-02-27T06:10:46;7.40;;;4.07;;
6955;SDS011;50345;51.136;16.886;2023-02-27T06:13:13;6.82;;;5.07;;
6955;SDS011;50345;51.136;16.886;2023-02-27T06:15:41;7.93;;;5.32;;
6955;SDS011;50345;51.136;16.886;2023-02-27T06:18:07;6.25;;;4.95;;
6955;SDS011;50345;51.136;16.886;2023-02-27T06:20:34;10.60;;;5.50;;
6955;SDS011;50345;51.136;16.886;2023-02-27T06:22:59;12.13;;;6.10;;
6955;SDS011;50345;51.136;16.886;2023-02-27T06:25:25;7.83;;;5.20;;
6955;SDS011;50345;51.136;16.886;2023-02-27T06:27:50;5.27;;;4.00;;
6955;SDS011;50345;51.136;16.886;2023-02-27T06:30:16;8.07;;;5.10;;
6955;SDS011;50345;51.136;16.886;2023-02-27T06:32:42;5.30;;;4.73;;
6955;SDS011;50345;51.136;16.886;2023-02-27T06:35:07;10.90;;;5.73;;
6955;SDS011;50345;51.136;16.886;2023-02-27T06:37:33;8.43;;;4.55;;
6955;SDS011;50345;51.136;16.886;2023-02-27T06:39:59;7.30;;;4.40;;
6955;SDS011;50345;51.136;16.886;2023-02-27T06:42:25;4.57;;;4.10;;
6955;SDS011;50345;51.136;16.886;2023-02-27T06:44:50;8.53;;;4.10;;
6955;SDS011;50345;51.136;16.886;2023-02-27T06:47:16;8.27;;;4.20;;
6955;SDS011;50345;51.136;16.886;2023-02-27T06:49:42;6.70;;;4.50;;
6955;SDS011;50345;51.136;16.886;2023-02-27T06:52:07;6.30;;;4.80;;
6955;SDS011;50345;51.136;16.886;2023-02-27T06:54:33;5.90;;;4.40;;
6955;SDS011;50345;51.136;16.886;2023-02-27T06:56:59;8.90;;;5.00;;
6955;SDS011;50345;51.136;16.886;2023-02-27T06:59:24;7.80;;;4.63;;
6955;SDS011;50345;51.136;16.886;2023-02-27T07:01:50;4.93;;;4.13;;
6955;SDS011;50345;51.136;16.886;2023-02-27T07:04:16;13.13;;;6.50;;
6955;SDS011;50345;51.136;16.886;2023-02-27T07:06:41;7.43;;;5.40;;
6955;SDS011;50345;51.136;16.886;2023-02-27T07:09:07;10.37;;;3.93;;
6955;SDS011;50345;51.136;16.886;2023-02-27T07:11:33;7.43;;;4.20;;
6955;SDS011;50345;51.136;16.886;2023-02-27T07:13:59;7.03;;;4.00;;
6955;SDS011;50345;51.136;16.886;2023-02-27T07:16:24;5.07;;;3.90;;
6955;SDS011;50345;51.136;16.886;2023-02-27T07:18:50;7.87;;;4.60;;
6955;SDS011;50345;51.136;16.886;2023-02-27T07:21:16;4.40;;;3.90;;
6955;SDS011;50345;51.136;16.886;2023-02-27T07:23:41;6.03;;;4.03;;
6955;SDS011;50345;51.136;16.886;2023-02-27T07:26:07;9.53;;;4.60;;
6955;SDS011;50345;51.136;16.886;2023-02-27T07:28:32;6.40;;;5.13;;
6955;SDS011;50345;51.136;16.886;2023-02-27T07:30:59;6.57;;;5.27;;
6955;SDS011;50345;51.136;16.886;2023-02-27T07:33:24;8.68;;;5.50;;
6955;SDS011;50345;51.136;16.886;2023-02-27T07:35:50;5.47;;;4.93;;
6955;SDS011;50345;51.136;16.886;2023-02-27T07:38:16;8.00;;;5.83;;
6955;SDS011;50345;51.136;16.886;2023-02-27T07:40:43;7.38;;;5.70;;
6955;SDS011;50345;51.136;16.886;2023-02-27T07:43:12;10.38;;;6.13;;
6955;SDS011;50345;51.136;16.886;2023-02-27T07:45:37;16.03;;;7.87;;
6955;SDS011;50345;51.136;16.886;2023-02-27T07:48:03;11.23;;;7.90;;
6955;SDS011;50345;51.136;16.886;2023-02-27T07:50:29;12.00;;;6.17;;
6955;SDS011;50345;51.136;16.886;2023-02-27T07:52:54;10.00;;;6.70;;
6955;SDS011;50345;51.136;16.886;2023-02-27T07:55:20;9.83;;;6.93;;
6955;SDS011;50345;51.136;16.886;2023-02-27T07:57:46;9.60;;;6.70;;
6955;SDS011;50345;51.136;16.886;2023-02-27T08:00:11;7.40;;;5.27;;
6955;SDS011;50345;51.136;16.886;2023-02-27T08:02:38;7.20;;;4.57;;
6955;SDS011;50345;51.136;16.886;2023-02-27T08:05:04;5.13;;;4.38;;
6955;SDS011;50345;51.136;16.886;2023-02-27T08:07:30;5.32;;;4.45;;
6955;SDS011;50345;51.136;16.886;2023-02-27T08:09:56;8.87;;;4.80;;
6955;SDS011;50345;51.136;16.886;2023-02-27T08:12:21;7.93;;;5.60;;
6955;SDS011;50345;51.136;16.886;2023-02-27T08:14:47;7.70;;;5.50;;
6955;SDS011;50345;51.136;16.886;2023-02-27T08:17:13;8.70;;;6.00;;
6955;SDS011;50345;51.136;16.886;2023-02-27T08:19:38;5.30;;;4.77;;
6955;SDS011;50345;51.136;16.886;2023-02-27T08:22:05;11.00;;;6.20;;
6955;SDS011;50345;51.136;16.886;2023-02-27T08:24:30;7.43;;;5.10;;
6955;SDS011;50345;51.136;16.886;2023-02-27T08:26:56;10.50;;;8.37;;
6955;SDS011;50345;51.136;16.886;2023-02-27T08:29:22;7.60;;;5.10;;
6955;SDS011;50345;51.136;16.886;2023-02-27T08:31:47;6.87;;;5.40;;
6955;SDS011;50345;51.136;16.886;2023-02-27T08:34:13;5.50;;;4.00;;
6955;SDS011;50345;51.136;16.886;2023-02-27T08:36:39;8.10;;;4.00;;
6955;SDS011;50345;51.136;16.886;2023-02-27T08:39:05;5.40;;;4.90;;
6955;SDS011;50345;51.136;16.886;2023-02-27T08:41:32;6.68;;;4.60;;
6955;SDS011;50345;51.136;16.886;2023-02-27T08:43:57;6.38;;;4.63;;
6955;SDS011;50345;51.136;16.886;2023-02-27T08:46:23;10.60;;;4.70;;
6955;SDS011;50345;51.136;16.886;2023-02-27T08:48:48;6.73;;;5.10;;
6955;SDS011;50345;51.136;16.886;2023-02-27T08:51:14;7.77;;;5.50;;
6955;SDS011;50345;51.136;16.886;2023-02-27T08:53:40;6.77;;;4.77;;
6955;SDS011;50345;51.136;16.886;2023-02-27T08:56:05;6.67;;;4.20;;
6955;SDS011;50345;51.136;16.886;2023-02-27T08:58:31;7.93;;;4.27;;
6955;SDS011;50345;51.136;16.886;2023-02-27T09:00:56;6.17;;;4.50;;
6955;SDS011;50345;51.136;16.886;2023-02-27T09:03:22;10.40;;;5.20;;
6955;SDS011;50345;51.136;16.886;2023-02-27T09:05:52;6.38;;;3.95;;
6955;SDS011;50345;51.136;16.886;2023-02-27T09:08:19;4.40;;;3.85;;
6955;SDS011;50345;51.136;16.886;2023-02-27T09:10:44;6.10;;;3.80;;
6955;SDS011;50345;51.136;16.886;2023-02-27T09:13:10;4.70;;;3.33;;
6955;SDS011;50345;51.136;16.886;2023-02-27T09:15:36;9.77;;;4.50;;
6955;SDS011;50345;51.136;16.886;2023-02-27T09:18:03;8.50;;;6.30;;
6955;SDS011;50345;51.136;16.886;2023-02-27T09:20:31;4.55;;;4.15;;
6955;SDS011;50345;51.136;16.886;2023-02-27T09:23:00;5.35;;;4.10;;
6955;SDS011;50345;51.136;16.886;2023-02-27T09:25:26;6.78;;;4.28;;
6955;SDS011;50345;51.136;16.886;2023-02-27T09:27:52;5.65;;;3.80;;
6955;SDS011;50345;51.136;16.886;2023-02-27T09:30:18;4.82;;;4.32;;
6955;SDS011;50345;51.136;16.886;2023-02-27T09:32:44;5.70;;;4.67;;
6955;SDS011;50345;51.136;16.886;2023-02-27T09:35:10;6.23;;;4.90;;
6955;SDS011;50345;51.136;16.886;2023-02-27T09:37:35;4.60;;;4.20;;
6955;SDS011;50345;51.136;16.886;2023-02-27T09:40:01;8.10;;;3.67;;
6955;SDS011;50345;51.136;16.886;2023-02-27T09:42:32;5.00;;;4.03;;
6955;SDS011;50345;51.136;16.886;2023-02-27T09:45:09;5.28;;;3.90;;
6955;SDS011;50345;51.136;16.886;2023-02-27T09:47:46;4.22;;;3.80;;
6955;SDS011;50345;51.136;16.886;2023-02-27T09:50:30;4.00;;;2.70;;
6955;SDS011;50345;51.136;16.886;2023-02-27T09:53:01;2.85;;;2.63;;
6955;SDS011;50345;51.136;16.886;2023-02-27T09:55:29;3.80;;;2.85;;
6955;SDS011;50345;51.136;16.886;2023-02-27T10:08:37;3.58;;;2.70;;
6955;SDS011;50345;51.136;16.886;2023-02-27T10:11:14;6.25;;;3.10;;
6955;SDS011;50345;51.136;16.886;2023-02-27T10:16:19;3.25;;;2.70;;
6955;SDS011;50345;51.136;16.886;2023-02-27T10:21:30;3.35;;;2.95;;
6955;SDS011;50345;51.136;16.886;2023-02-27T10:24:11;4.95;;;2.28;;
6955;SDS011;50345;51.136;16.886;2023-02-27T10:26:51;7.43;;;3.08;;
6955;SDS011;50345;51.136;16.886;2023-02-27T10:29:26;4.32;;;2.80;;
6955;SDS011;50345;51.136;16.886;2023-02-27T10:32:04;3.63;;;2.90;;
6955;SDS011;50345;51.136;16.886;2023-02-27T10:34:34;3.38;;;2.28;;
6955;SDS011;50345;51.136;16.886;2023-02-27T10:37:03;3.25;;;2.90;;
6955;SDS011;50345;51.136;16.886;2023-02-27T10:39:31;3.45;;;3.15;;
6955;SDS011;50345;51.136;16.886;2023-02-27T10:42:08;3.05;;;2.60;;
6955;SDS011;50345;51.136;16.886;2023-02-27T10:44:37;3.65;;;3.22;;
6955;SDS011;50345;51.136;16.886;2023-02-27T10:47:03;4.70;;;3.43;;
6955;SDS011;50345;51.136;16.886;2023-02-27T10:49:29;2.90;;;2.70;;
6955;SDS011;50345;51.136;16.886;2023-02-27T10:52:06;3.05;;;2.50;;
6955;SDS011;50345;51.136;16.886;2023-02-27T10:54:37;3.63;;;2.95;;
6955;SDS011;50345;51.136;16.886;2023-02-27T10:59:41;2.90;;;2.47;;
6955;SDS011;50345;51.136;16.886;2023-02-27T11:04:46;3.60;;;2.80;;
6955;SDS011;50345;51.136;16.886;2023-02-27T11:07:24;3.97;;;3.38;;
6955;SDS011;50345;51.136;16.886;2023-02-27T11:12:37;3.20;;;2.40;;
6955;SDS011;50345;51.136;16.886;2023-02-27T11:15:20;3.85;;;2.70;;
6955;SDS011;50345;51.136;16.886;2023-02-27T11:17:49;3.30;;;2.83;;
6955;SDS011;50345;51.136;16.886;2023-02-27T11:20:32;5.25;;;2.90;;
6955;SDS011;50345;51.136;16.886;2023-02-27T11:25:42;4.35;;;3.40;;
6955;SDS011;50345;51.136;16.886;2023-02-27T11:28:12;3.85;;;2.97;;
6955;SDS011;50345;51.136;16.886;2023-02-27T11:30:41;4.45;;;2.78;;
6955;SDS011;50345;51.136;16.886;2023-02-27T11:33:16;4.25;;;3.40;;
6955;SDS011;50345;51.136;16.886;2023-02-27T11:35:48;2.25;;;2.05;;
6955;SDS011;50345;51.136;16.886;2023-02-27T11:38:18;3.42;;;2.88;;
6955;SDS011;50345;51.136;16.886;2023-02-27T11:40:57;3.78;;;2.45;;
6955;SDS011;50345;51.136;16.886;2023-02-27T11:43:31;1.88;;;1.77;;
6955;SDS011;50345;51.136;16.886;2023-02-27T11:46:05;4.65;;;2.20;;
6955;SDS011;50345;51.136;16.886;2023-02-27T11:48:35;1.50;;;1.40;;
6955;SDS011;50345;51.136;16.886;2023-02-27T11:56:34;3.40;;;3.03;;
6955;SDS011;50345;51.136;16.886;2023-02-27T12:04:22;2.85;;;2.40;;
6955;SDS011;50345;51.136;16.886;2023-02-27T12:12:01;2.72;;;2.50;;
6955;SDS011;50345;51.136;16.886;2023-02-27T12:14:39;3.53;;;2.95;;
6955;SDS011;50345;51.136;16.886;2023-02-27T12:17:22;3.65;;;2.75;;
6955;SDS011;50345;51.136;16.886;2023-02-27T12:20:08;3.58;;;3.28;;
6955;SDS011;50345;51.136;16.886;2023-02-27T12:22:52;6.05;;;4.32;;
6955;SDS011;50345;51.136;16.886;2023-02-27T12:25:23;5.35;;;3.78;;
6955;SDS011;50345;51.136;16.886;2023-02-27T12:27:59;8.40;;;4.32;;
6955;SDS011;50345;51.136;16.886;2023-02-27T12:30:53;4.85;;;3.90;;
6955;SDS011;50345;51.136;16.886;2023-02-27T12:33:32;4.35;;;3.95;;
6955;SDS011;50345;51.136;16.886;2023-02-27T12:36:13;6.50;;;5.80;;
6955;SDS011;50345;51.136;16.886;2023-02-27T12:38:39;5.60;;;5.17;;
6955;SDS011;50345;51.136;16.886;2023-02-27T12:43:58;5.05;;;4.35;;
6955;SDS011;50345;51.136;16.886;2023-02-27T12:55:23;7.88;;;4.53;;
6955;SDS011;50345;51.136;16.886;2023-02-27T13:00:27;6.95;;;6.30;;
6955;SDS011;50345;51.136;16.886;2023-02-27T13:05:43;10.40;;;7.72;;
6955;SDS011;50345;51.136;16.886;2023-02-27T13:10:58;12.00;;;9.50;;
6955;SDS011;50345;51.136;16.886;2023-02-27T13:13:38;8.25;;;6.18;;
6955;SDS011;50345;51.136;16.886;2023-02-27T13:16:28;10.15;;;6.93;;
6955;SDS011;50345;51.136;16.886;2023-02-27T13:19:02;12.32;;;8.40;;
6955;SDS011;50345;51.136;16.886;2023-02-27T13:24:01;7.88;;;6.18;;
6955;SDS011;50345;51.136;16.886;2023-02-27T13:26:34;7.70;;;5.40;;
6955;SDS011;50345;51.136;16.886;2023-02-27T13:29:01;6.13;;;4.30;;
6955;SDS011;50345;51.136;16.886;2023-02-27T13:31:40;7.20;;;5.07;;
6955;SDS011;50345;51.136;16.886;2023-02-27T13:34:32;5.13;;;4.63;;
6955;SDS011;50345;51.136;16.886;2023-02-27T13:37:04;5.78;;;4.30;;
6955;SDS011;50345;51.136;16.886;2023-02-27T13:42:00;7.85;;;5.72;;
6955;SDS011;50345;51.136;16.886;2023-02-27T13:46:52;4.38;;;4.03;;
6955;SDS011;50345;51.136;16.886;2023-02-27T13:49:21;6.37;;;5.10;;
6955;SDS011;50345;51.136;16.886;2023-02-27T13:51:50;5.82;;;4.90;;
6955;SDS011;50345;51.136;16.886;2023-02-27T13:59:37;6.70;;;5.75;;
6955;SDS011;50345;51.136;16.886;2023-02-27T14:07:10;8.18;;;6.30;;
6955;SDS011;50345;51.136;16.886;2023-02-27T14:09:40;7.90;;;6.35;;
6955;SDS011;50345;51.136;16.886;2023-02-27T14:12:41;13.27;;;8.20;;
6955;SDS011;50345;51.136;16.886;2023-02-27T14:15:05;14.93;;;8.30;;
6955;SDS011;50345;51.136;16.886;2023-02-27T14:17:52;8.80;;;7.47;;
6955;SDS011;50345;51.136;16.886;2023-02-27T14:25:39;9.73;;;7.75;;
6955;SDS011;50345;51.136;16.886;2023-02-27T14:28:36;11.80;;;8.48;;
6955;SDS011;50345;51.136;16.886;2023-02-27T14:31:22;8.77;;;7.47;;
6955;SDS011;50345;51.136;16.886;2023-02-27T14:33:50;8.93;;;7.10;;
6955;SDS011;50345;51.136;16.886;2023-02-27T14:36:29;8.20;;;7.40;;
6955;SDS011;50345;51.136;16.886;2023-02-27T14:38:59;9.48;;;8.48;;
6955;SDS011;50345;51.136;16.886;2023-02-27T14:44:23;8.02;;;6.50;;
6955;SDS011;50345;51.136;16.886;2023-02-27T14:46:52;10.60;;;7.10;;
6955;SDS011;50345;51.136;16.886;2023-02-27T14:49:20;7.07;;;6.40;;
6955;SDS011;50345;51.136;16.886;2023-02-27T14:51:49;9.02;;;6.97;;
6955;SDS011;50345;51.136;16.886;2023-02-27T14:56:57;10.48;;;7.55;;
6955;SDS011;50345;51.136;16.886;2023-02-27T14:59:25;11.05;;;9.13;;
6955;SDS011;50345;51.136;16.886;2023-02-27T15:01:53;10.85;;;7.13;;
6955;SDS011;50345;51.136;16.886;2023-02-27T15:04:21;11.18;;;8.05;;
6955;SDS011;50345;51.136;16.886;2023-02-27T15:06:50;9.88;;;7.85;;
6955;SDS011;50345;51.136;16.886;2023-02-27T15:09:26;9.50;;;7.18;;
6955;SDS011;50345;51.136;16.886;2023-02-27T15:12:01;8.48;;;7.25;;
6955;SDS011;50345;51.136;16.886;2023-02-27T15:14:37;13.25;;;9.60;;
6955;SDS011;50345;51.136;16.886;2023-02-27T15:17:20;10.88;;;8.13;;
6955;SDS011;50345;51.136;16.886;2023-02-27T15:19:51;9.63;;;8.52;;
6955;SDS011;50345;51.136;16.886;2023-02-27T15:22:22;8.90;;;7.07;;
6955;SDS011;50345;51.136;16.886;2023-02-27T15:24:55;12.52;;;6.35;;
6955;SDS011;50345;51.136;16.886;2023-02-27T15:27:22;12.13;;;5.82;;
6955;SDS011;50345;51.136;16.886;2023-02-27T15:29:56;6.25;;;4.75;;
6955;SDS011;50345;51.136;16.886;2023-02-27T15:32:34;7.32;;;5.03;;
6955;SDS011;50345;51.136;16.886;2023-02-27T15:35:05;6.28;;;4.78;;
6955;SDS011;50345;51.136;16.886;2023-02-27T15:37:39;7.45;;;6.13;;
6955;SDS011;50345;51.136;16.886;2023-02-27T15:40:10;13.82;;;7.78;;
6955;SDS011;50345;51.136;16.886;2023-02-27T15:42:43;10.07;;;6.85;;
6955;SDS011;50345;51.136;16.886;2023-02-27T15:45:09;11.50;;;7.13;;
6955;SDS011;50345;51.136;16.886;2023-02-27T15:47:45;10.77;;;8.05;;
6955;SDS011;50345;51.136;16.886;2023-02-27T15:52:41;7.57;;;6.75;;
6955;SDS011;50345;51.136;16.886;2023-02-27T15:55:15;10.30;;;9.02;;
6955;SDS011;50345;51.136;16.886;2023-02-27T15:57:45;9.57;;;7.57;;
6955;SDS011;50345;51.136;16.886;2023-02-27T16:00:11;7.53;;;5.70;;
6955;SDS011;50345;51.136;16.886;2023-02-27T16:02:41;5.70;;;4.45;;
6955;SDS011;50345;51.136;16.886;2023-02-27T16:05:19;4.97;;;4.47;;
6955;SDS011;50345;51.136;16.886;2023-02-27T16:07:58;8.85;;;7.05;;
6955;SDS011;50345;51.136;16.886;2023-02-27T16:10:28;13.43;;;7.88;;
6955;SDS011;50345;51.136;16.886;2023-02-27T16:13:17;11.50;;;7.75;;
6955;SDS011;50345;51.136;16.886;2023-02-27T16:16:05;15.30;;;9.40;;
6955;SDS011;50345;51.136;16.886;2023-02-27T16:18:49;10.73;;;8.30;;
6955;SDS011;50345;51.136;16.886;2023-02-27T16:21:18;12.23;;;8.20;;
6955;SDS011;50345;51.136;16.886;2023-02-27T16:23:47;14.15;;;9.50;;
6955;SDS011;50345;51.136;16.886;2023-02-27T16:26:29;14.77;;;9.70;;
6955;SDS011;50345;51.136;16.886;2023-02-27T16:29:04;15.30;;;10.10;;
6955;SDS011;50345;51.136;16.886;2023-02-27T16:31:45;16.23;;;9.73;;
6955;SDS011;50345;51.136;16.886;2023-02-27T16:34:35;12.32;;;8.88;;
6955;SDS011;50345;51.136;16.886;2023-02-27T16:37:15;11.07;;;9.80;;
6955;SDS011;50345;51.136;16.886;2023-02-27T16:39:44;15.05;;;11.25;;
6955;SDS011;50345;51.136;16.886;2023-02-27T16:42:10;18.33;;;14.00;;
6955;SDS011;50345;51.136;16.886;2023-02-27T16:44:36;15.23;;;11.30;;
6955;SDS011;50345;51.136;16.886;2023-02-27T16:47:01;17.30;;;11.73;;
6955;SDS011;50345;51.136;16.886;2023-02-27T16:49:28;18.13;;;11.70;;
6955;SDS011;50345;51.136;16.886;2023-02-27T16:51:54;15.65;;;10.63;;
6955;SDS011;50345;51.136;16.886;2023-02-27T16:54:21;16.58;;;11.82;;
6955;SDS011;50345;51.136;16.886;2023-02-27T16:56:47;17.15;;;13.32;;
6955;SDS011;50345;51.136;16.886;2023-02-27T16:59:33;18.52;;;12.98;;
6955;SDS011;50345;51.136;16.886;2023-02-27T17:02:01;16.83;;;12.32;;
6955;SDS011;50345;51.136;16.886;2023-02-27T17:04:29;21.35;;;13.80;;
6955;SDS011;50345;51.136;16.886;2023-02-27T17:06:56;17.15;;;13.45;;
6955;SDS011;50345;51.136;16.886;2023-02-27T17:09:23;17.88;;;14.05;;
6955;SDS011;50345;51.136;16.886;2023-02-27T17:11:51;18.45;;;13.68;;
6955;SDS011;50345;51.136;16.886;2023-02-27T17:14:17;24.83;;;15.05;;
6955;SDS011;50345;51.136;16.886;2023-02-27T17:16:43;20.47;;;14.70;;
6955;SDS011;50345;51.136;16.886;2023-02-27T17:19:08;34.60;;;21.00;;
6955;SDS011;50345;51.136;16.886;2023-02-27T17:21:34;28.40;;;17.30;;
6955;SDS011;50345;51.136;16.886;2023-02-27T17:24:00;20.60;;;14.53;;
6955;SDS011;50345;51.136;16.886;2023-02-27T17:26:25;22.20;;;16.57;;
6955;SDS011;50345;51.136;16.886;2023-02-27T17:28:52;28.90;;;20.07;;
6955;SDS011;50345;51.136;16.886;2023-02-27T17:31:18;38.65;;;21.77;;
6955;SDS011;50345;51.136;16.886;2023-02-27T17:33:47;30.50;;;23.25;;
6955;SDS011;50345;51.136;16.886;2023-02-27T17:36:14;35.70;;;24.88;;
6955;SDS011;50345;51.136;16.886;2023-02-27T17:38:40;34.50;;;23.20;;